createdAt,value
2023-05-14T00:00:09.262Z,100.00
2023-05-14T00:02:38.361Z,100.00
2023-05-14T00:05:06.826Z,100.00
2023-05-14T00:07:34.532Z,100.00
2023-05-14T00:10:02.144Z,100.00
2023-05-14T00:12:30.147Z,100.00
2023-05-14T00:14:57.794Z,100.00
2023-05-14T00:17:25.510Z,100.00
2023-05-14T00:19:54.549Z,100.00
2023-05-14T00:22:22.177Z,100.00
2023-05-14T00:24:49.783Z,100.00
2023-05-14T00:27:17.534Z,100.00
2023-05-14T00:29:45.614Z,100.00
2023-05-14T00:32:13.295Z,100.00
2023-05-14T00:34:40.904Z,100.00
2023-05-14T00:37:09.914Z,100.00
2023-05-14T00:39:37.573Z,100.00
2023-05-14T00:42:05.849Z,100.00
2023-05-14T00:44:34.170Z,100.00
2023-05-14T00:47:02.031Z,100.00
2023-05-14T00:49:30.161Z,100.00
2023-05-14T00:52:00.307Z,100.00
2023-05-14T00:54:31.627Z,100.00
2023-05-14T00:57:00.952Z,100.00
2023-05-14T00:59:28.607Z,100.00
2023-05-14T01:01:56.241Z,100.00
2023-05-14T01:04:24.111Z,100.00
2023-05-14T01:07:04.500Z,100.00
2023-05-14T01:09:41.413Z,100.00
2023-05-14T01:12:17.522Z,100.00
2023-05-14T01:14:54.759Z,100.00
2023-05-14T01:17:23.347Z,100.00
2023-05-14T01:19:52.545Z,100.00
2023-05-14T01:22:21.547Z,100.00
2023-05-14T01:24:49.172Z,100.00
2023-05-14T01:27:23.305Z,100.00
2023-05-14T01:29:55.485Z,100.00
2023-05-14T01:32:24.648Z,100.00
2023-05-14T01:34:53.642Z,100.00
2023-05-14T01:37:23.531Z,100.00
2023-05-14T01:39:52.807Z,100.00
2023-05-14T01:42:20.661Z,100.00
2023-05-14T01:44:48.347Z,100.00
2023-05-14T01:47:15.996Z,100.00
2023-05-14T01:49:43.653Z,100.00
2023-05-14T01:52:12.033Z,100.00
2023-05-14T01:54:40.955Z,100.00
2023-05-14T01:57:08.580Z,100.00
2023-05-14T01:59:36.201Z,100.00
2023-05-14T02:02:03.831Z,100.00
2023-05-14T02:04:31.518Z,100.00
2023-05-14T02:06:59.151Z,100.00
2023-05-14T02:09:26.714Z,100.00
2023-05-14T02:11:55.803Z,100.00
2023-05-14T02:14:23.387Z,100.00
2023-05-14T02:16:52.028Z,100.00
2023-05-14T02:19:19.661Z,100.00
2023-05-14T02:21:47.412Z,100.00
2023-05-14T02:24:15.308Z,100.00
2023-05-14T02:26:43.289Z,100.00
2023-05-14T02:29:12.647Z,100.00
2023-05-14T02:31:40.539Z,100.00
2023-05-14T02:34:08.221Z,100.00
2023-05-14T02:36:36.261Z,100.00
2023-05-14T02:39:04.623Z,100.00
2023-05-14T02:41:32.626Z,100.00
2023-05-14T02:44:00.510Z,100.00
2023-05-14T02:46:29.770Z,100.00
2023-05-14T02:48:57.952Z,100.00
2023-05-14T02:51:26.930Z,100.00
2023-05-14T02:53:54.831Z,100.00
2023-05-14T02:56:22.822Z,100.00
2023-05-14T02:58:51.076Z,100.00
2023-05-14T03:01:19.911Z,100.00
2023-05-14T03:03:50.262Z,100.00
2023-05-14T03:06:17.971Z,100.00
2023-05-14T03:08:45.935Z,100.00
2023-05-14T03:11:13.642Z,100.00
2023-05-14T03:13:41.715Z,100.00
2023-05-14T03:16:09.985Z,100.00
2023-05-14T03:18:37.971Z,100.00
2023-05-14T03:21:09.076Z,100.00
2023-05-14T03:23:36.738Z,100.00
2023-05-14T03:26:04.913Z,100.00
2023-05-14T03:28:32.855Z,100.00
2023-05-14T03:31:01.293Z,100.00
2023-05-14T03:33:29.568Z,100.00
2023-05-14T03:35:57.842Z,100.00
2023-05-14T03:38:26.970Z,100.00
2023-05-14T03:40:55.347Z,100.00
2023-05-14T03:43:23.422Z,100.00
2023-05-14T03:45:54.679Z,100.00
2023-05-14T03:48:22.858Z,100.00
2023-05-14T03:50:51.358Z,100.00
2023-05-14T03:53:19.411Z,100.00
2023-05-14T03:55:48.864Z,100.00
2023-05-14T03:58:17.399Z,100.00
2023-05-14T04:00:47.022Z,100.00
2023-05-14T04:03:15.122Z,100.00
2023-05-14T04:05:43.062Z,100.00
2023-05-14T04:08:11.321Z,100.00
2023-05-14T04:10:39.474Z,100.00
2023-05-14T04:13:08.839Z,100.00
2023-05-14T04:15:39.398Z,100.00
2023-05-14T04:18:07.983Z,100.00
2023-05-14T04:20:35.781Z,100.00
2023-05-14T04:23:03.807Z,100.00
2023-05-14T04:25:31.733Z,100.00
2023-05-14T04:28:01.849Z,100.00
2023-05-14T04:30:31.322Z,100.00
2023-05-14T04:32:59.158Z,100.00
2023-05-14T04:35:27.042Z,100.00
2023-05-14T04:37:55.140Z,100.00
2023-05-14T04:40:24.007Z,100.00
2023-05-14T04:42:52.748Z,100.00
2023-05-14T04:45:21.521Z,100.00
2023-05-14T04:47:51.438Z,100.00
2023-05-14T04:50:19.382Z,100.00
2023-05-14T04:52:49.515Z,100.00
2023-05-14T04:55:17.499Z,100.00
2023-05-14T04:57:45.562Z,98.62
2023-05-14T05:00:14.904Z,91.94
2023-05-14T05:02:43.201Z,89.47
2023-05-14T05:05:12.506Z,89.74
2023-05-14T05:07:40.410Z,94.64
2023-05-14T05:10:10.610Z,98.32
2023-05-14T05:12:38.694Z,100.00
2023-05-14T05:15:07.663Z,100.00
2023-05-14T05:17:35.774Z,100.00
2023-05-14T05:20:05.242Z,100.00
2023-05-14T05:22:34.673Z,100.00
2023-05-14T05:25:06.768Z,89.71
2023-05-14T05:27:34.448Z,82.81
2023-05-14T05:30:05.797Z,79.39
2023-05-14T05:32:33.737Z,74.40
2023-05-14T05:35:03.805Z,77.36
2023-05-14T05:37:32.023Z,68.96
2023-05-14T05:40:01.083Z,75.27
2023-05-14T05:42:28.835Z,80.00
2023-05-14T05:44:57.502Z,74.49
2023-05-14T05:47:25.664Z,72.00
2023-05-14T05:49:54.206Z,65.41
2023-05-14T05:52:21.930Z,67.63
2023-05-14T05:54:50.328Z,65.56
2023-05-14T05:57:19.989Z,67.23
2023-05-14T05:59:47.968Z,68.89
2023-05-14T06:02:16.318Z,68.79
2023-05-14T06:04:44.129Z,71.61
2023-05-14T06:07:13.011Z,70.92
2023-05-14T06:09:41.076Z,65.38
2023-05-14T06:12:11.135Z,69.24
2023-05-14T06:14:41.307Z,71.91
2023-05-14T06:17:09.483Z,72.88
2023-05-14T06:19:38.471Z,72.54
2023-05-14T06:22:06.420Z,75.28
2023-05-14T06:24:34.706Z,73.24
2023-05-14T06:27:02.635Z,73.61
2023-05-14T06:29:30.502Z,77.96
2023-05-14T06:32:03.724Z,78.74
2023-05-14T06:34:32.037Z,81.17
2023-05-14T06:37:03.718Z,78.99
2023-05-14T06:39:32.260Z,80.23
2023-05-14T06:42:00.348Z,78.56
2023-05-14T06:44:28.820Z,75.44
2023-05-14T06:46:57.448Z,75.55
2023-05-14T06:49:26.881Z,74.86
2023-05-14T06:51:54.956Z,75.80
2023-05-14T06:54:22.967Z,67.36
2023-05-14T06:56:51.269Z,65.29
2023-05-14T06:59:19.732Z,67.54
2023-05-14T07:01:48.490Z,69.61
2023-05-14T07:04:16.800Z,69.73
2023-05-14T07:06:46.261Z,71.66
2023-05-14T07:09:14.135Z,71.90
2023-05-14T07:11:42.107Z,76.19
2023-05-14T07:14:11.834Z,77.82
2023-05-14T07:16:40.426Z,81.31
2023-05-14T07:19:08.434Z,84.85
2023-05-14T07:21:36.838Z,85.47
2023-05-14T07:24:07.136Z,90.32
2023-05-14T07:26:35.271Z,79.97
2023-05-14T07:29:03.386Z,78.07
2023-05-14T07:31:31.581Z,80.61
2023-05-14T07:33:59.573Z,79.04
2023-05-14T07:36:27.930Z,78.71
2023-05-14T07:38:59.477Z,80.28
2023-05-14T07:41:34.407Z,80.35
2023-05-14T07:44:09.860Z,79.28
2023-05-14T07:46:38.291Z,81.69
2023-05-14T07:49:06.224Z,81.04
2023-05-14T07:51:35.510Z,80.30
2023-05-14T07:54:05.534Z,81.44
2023-05-14T07:56:34.948Z,81.21
2023-05-14T07:59:02.832Z,80.90
2023-05-14T08:01:31.221Z,81.39
2023-05-14T08:03:58.920Z,84.95
2023-05-14T08:06:27.567Z,78.26
2023-05-14T08:08:55.257Z,82.23
2023-05-14T08:11:23.387Z,85.38
2023-05-14T08:13:55.081Z,92.27
2023-05-14T08:16:23.473Z,97.89
2023-05-14T08:18:51.151Z,91.65
2023-05-14T08:21:30.685Z,93.44
2023-05-14T08:26:43.065Z,96.95
2023-05-14T08:29:13.429Z,94.12
2023-05-14T08:31:44.623Z,92.92
2023-05-14T08:34:15.637Z,92.06
2023-05-14T08:36:43.360Z,87.03
2023-05-14T08:39:11.140Z,82.23
2023-05-14T08:41:39.162Z,77.31
2023-05-14T08:44:10.002Z,74.93
2023-05-14T08:46:40.165Z,68.09
2023-05-14T08:49:18.199Z,68.93
2023-05-14T08:51:47.045Z,69.01
2023-05-14T08:54:18.239Z,66.01
2023-05-14T08:56:47.217Z,65.80
2023-05-14T08:59:17.434Z,59.46
2023-05-14T09:01:48.661Z,61.09
2023-05-14T09:04:20.800Z,57.92
2023-05-14T09:06:51.719Z,54.01
2023-05-14T09:09:22.364Z,56.06
2023-05-14T09:11:51.029Z,52.03
2023-05-14T09:14:18.715Z,49.93
2023-05-14T09:16:49.873Z,50.51
2023-05-14T09:19:18.988Z,54.31
2023-05-14T09:21:48.694Z,52.26
2023-05-14T09:24:21.107Z,46.21
2023-05-14T09:26:51.768Z,49.45
2023-05-14T09:29:19.590Z,47.91
2023-05-14T09:31:51.014Z,49.46
2023-05-14T09:34:25.030Z,46.35
2023-05-14T09:36:57.234Z,44.08
2023-05-14T09:39:24.995Z,43.50
2023-05-14T09:41:53.488Z,45.58
2023-05-14T09:44:22.156Z,45.76
2023-05-14T09:46:52.466Z,43.55
2023-05-14T09:49:20.317Z,42.27
2023-05-14T09:51:50.682Z,42.51
2023-05-14T09:54:18.978Z,40.98
2023-05-14T09:56:46.636Z,37.16
2023-05-14T09:59:14.941Z,40.47
2023-05-14T10:01:44.568Z,38.93
2023-05-14T10:04:15.776Z,39.49
2023-05-14T10:06:48.826Z,38.43
2023-05-14T10:09:22.106Z,37.92
2023-05-14T10:11:54.509Z,39.04
2023-05-14T10:14:30.340Z,38.82
2023-05-14T10:17:01.957Z,38.82
2023-05-14T10:19:35.218Z,35.53
2023-05-14T10:22:07.996Z,36.06
2023-05-14T10:24:38.759Z,33.55
2023-05-14T10:27:06.967Z,36.06
2023-05-14T10:29:35.475Z,35.07
2023-05-14T10:32:06.276Z,37.99
2023-05-14T10:34:38.402Z,33.32
2023-05-14T10:37:08.861Z,35.66
2023-05-14T10:39:44.493Z,36.14
2023-05-14T10:42:13.105Z,34.73
2023-05-14T10:44:48.025Z,35.74
2023-05-14T10:47:17.268Z,36.72
2023-05-14T10:49:49.102Z,34.58
2023-05-14T10:52:19.690Z,34.73
2023-05-14T10:54:55.129Z,35.07
2023-05-14T10:57:24.664Z,35.00
2023-05-14T10:59:55.020Z,33.53
2023-05-14T11:02:25.073Z,33.77
2023-05-14T11:04:59.456Z,34.86
2023-05-14T11:07:32.183Z,34.04
2023-05-14T11:10:03.822Z,33.90
2023-05-14T11:12:31.753Z,35.35
2023-05-14T11:15:02.296Z,34.81
2023-05-14T11:17:31.664Z,36.45
2023-05-14T11:20:01.172Z,37.26
2023-05-14T11:22:28.851Z,34.36
2023-05-14T11:24:56.856Z,34.21
2023-05-14T11:27:24.645Z,33.25
2023-05-14T11:29:52.223Z,32.66
2023-05-14T11:32:21.143Z,34.60
2023-05-14T11:34:48.931Z,32.99
2023-05-14T11:37:18.147Z,33.00
2023-05-14T11:39:50.593Z,34.67
2023-05-14T11:42:19.509Z,32.91
2023-05-14T11:44:48.957Z,34.75
2023-05-14T11:47:18.211Z,33.84
2023-05-14T11:49:46.024Z,35.11
2023-05-14T11:52:15.048Z,34.36
2023-05-14T11:54:45.235Z,35.19
2023-05-14T11:57:14.379Z,39.95
2023-05-14T11:59:42.330Z,38.38
2023-05-14T12:02:11.682Z,39.45
2023-05-14T12:04:39.592Z,38.37
2023-05-14T12:07:11.988Z,38.94
2023-05-14T12:09:48.960Z,39.13
2023-05-14T12:12:19.315Z,39.92
2023-05-14T12:14:47.143Z,42.70
2023-05-14T12:17:16.479Z,44.24
2023-05-14T12:19:45.570Z,45.42
2023-05-14T12:22:14.720Z,46.15
2023-05-14T12:24:43.864Z,46.55
2023-05-14T12:27:12.025Z,47.44
2023-05-14T12:29:40.031Z,46.77
2023-05-14T12:32:11.176Z,46.63
2023-05-14T12:34:39.216Z,45.99
2023-05-14T12:37:07.577Z,47.40
2023-05-14T12:39:35.642Z,47.60
2023-05-14T12:42:04.795Z,47.53
2023-05-14T12:44:32.406Z,48.15
2023-05-14T12:47:00.094Z,47.96
2023-05-14T12:49:28.327Z,45.64
2023-05-14T12:52:07.636Z,45.15
2023-05-14T12:54:43.807Z,45.50
2023-05-14T12:57:12.962Z,46.01
2023-05-14T12:59:41.058Z,46.26
2023-05-14T13:02:09.031Z,45.16
2023-05-14T13:04:37.278Z,46.38
2023-05-14T13:07:05.137Z,45.39
2023-05-14T13:09:32.851Z,45.46
2023-05-14T13:12:00.736Z,45.17
2023-05-14T13:14:29.694Z,45.25
2023-05-14T13:16:58.054Z,42.61
2023-05-14T13:19:25.783Z,42.38
2023-05-14T13:21:53.401Z,41.81
2023-05-14T13:24:21.205Z,41.18
2023-05-14T13:26:48.807Z,41.21
2023-05-14T13:29:16.839Z,40.00
2023-05-14T13:31:45.927Z,39.32
2023-05-14T13:34:14.712Z,39.54
2023-05-14T13:36:43.573Z,40.02
2023-05-14T13:39:13.048Z,41.92
2023-05-14T13:41:41.735Z,41.64
2023-05-14T13:44:09.401Z,41.49
2023-05-14T13:46:37.153Z,42.66
2023-05-14T13:49:06.478Z,41.94
2023-05-14T13:51:34.106Z,41.90
2023-05-14T13:54:01.814Z,41.02
2023-05-14T13:56:29.491Z,40.72
2023-05-14T13:58:57.592Z,36.70
2023-05-14T14:01:25.607Z,37.09
2023-05-14T14:03:53.312Z,37.16
2023-05-14T14:06:22.586Z,36.89
2023-05-14T14:08:50.228Z,37.95
2023-05-14T14:11:17.956Z,36.30
2023-05-14T14:13:46.800Z,36.00
2023-05-14T14:16:14.642Z,35.91
2023-05-14T14:18:43.214Z,36.72
2023-05-14T14:21:12.231Z,36.25
2023-05-14T14:23:41.506Z,35.15
2023-05-14T14:26:09.119Z,35.67
2023-05-14T14:28:36.948Z,36.37
2023-05-14T14:31:04.630Z,36.73
2023-05-14T14:33:32.245Z,36.93
2023-05-14T14:35:59.868Z,35.25
2023-05-14T14:38:27.506Z,35.53
2023-05-14T14:40:56.468Z,35.08
2023-05-14T14:43:24.979Z,35.61
2023-05-14T14:45:52.649Z,35.44
2023-05-14T14:48:25.098Z,34.49
2023-05-14T14:50:52.906Z,35.01
2023-05-14T14:53:20.604Z,34.91
2023-05-14T14:55:48.997Z,34.14
2023-05-14T14:58:19.853Z,34.86
2023-05-14T15:00:47.856Z,35.91
2023-05-14T15:03:16.276Z,35.41
2023-05-14T15:05:43.966Z,35.25
2023-05-14T15:08:12.044Z,36.57
2023-05-14T15:10:41.157Z,36.96
2023-05-14T15:13:09.479Z,36.50
2023-05-14T15:15:38.510Z,36.56
2023-05-14T15:18:06.492Z,37.02
2023-05-14T15:20:34.122Z,35.81
2023-05-14T15:23:01.778Z,37.63
2023-05-14T15:25:29.879Z,37.47
2023-05-14T15:27:57.556Z,38.39
2023-05-14T15:30:25.291Z,39.50
2023-05-14T15:32:54.535Z,40.30
2023-05-14T15:35:22.762Z,41.14
2023-05-14T15:37:50.613Z,41.43
2023-05-14T15:40:19.981Z,40.93
2023-05-14T15:42:47.883Z,39.96
2023-05-14T15:45:15.617Z,39.45
2023-05-14T15:47:44.185Z,38.93
2023-05-14T15:50:13.364Z,39.83
2023-05-14T15:52:41.567Z,38.90
2023-05-14T15:55:09.986Z,37.71
2023-05-14T15:57:37.673Z,36.77
2023-05-14T16:00:10.390Z,36.85
2023-05-14T16:02:38.042Z,36.73
2023-05-14T16:05:06.648Z,36.53
2023-05-14T16:07:36.009Z,36.74
2023-05-14T16:10:03.748Z,35.87
2023-05-14T16:12:31.593Z,36.21
2023-05-14T16:14:59.853Z,36.36
2023-05-14T16:17:27.583Z,36.57
2023-05-14T16:19:56.416Z,35.58
2023-05-14T16:22:24.289Z,36.20
2023-05-14T16:24:53.261Z,36.14
2023-05-14T16:27:21.044Z,35.59
2023-05-14T16:29:48.610Z,36.18
2023-05-14T16:32:16.439Z,36.30
2023-05-14T16:34:49.458Z,36.47
2023-05-14T16:37:17.309Z,36.15
2023-05-14T16:39:44.986Z,35.96
2023-05-14T16:42:14.280Z,36.59
2023-05-14T16:44:41.907Z,37.30
2023-05-14T16:47:09.549Z,38.03
2023-05-14T16:49:37.614Z,38.55
2023-05-14T16:52:06.000Z,39.17
2023-05-14T16:54:33.654Z,39.45
2023-05-14T16:57:01.229Z,40.17
2023-05-14T16:59:30.229Z,40.27
2023-05-14T17:01:57.892Z,41.04
2023-05-14T17:04:26.618Z,41.10
2023-05-14T17:06:54.773Z,41.29
2023-05-14T17:09:22.354Z,41.05
2023-05-14T17:11:49.954Z,41.71
2023-05-14T17:14:17.564Z,41.39
2023-05-14T17:16:46.667Z,41.15
2023-05-14T17:19:14.344Z,40.99
2023-05-14T17:21:42.157Z,41.54
2023-05-14T17:24:09.842Z,41.21
2023-05-14T17:26:37.689Z,41.04
2023-05-14T17:29:05.267Z,41.27
2023-05-14T17:31:32.938Z,41.92
2023-05-14T17:34:01.932Z,41.96
2023-05-14T17:36:29.528Z,42.51
2023-05-14T17:38:57.170Z,42.88
2023-05-14T17:41:25.351Z,42.81
2023-05-14T17:43:53.163Z,42.21
2023-05-14T17:46:21.267Z,43.11
2023-05-14T17:48:49.955Z,41.79
2023-05-14T17:51:19.002Z,42.58
2023-05-14T17:53:46.556Z,42.51
2023-05-14T17:56:15.587Z,41.63
2023-05-14T17:58:43.252Z,42.41
2023-05-14T18:01:11.058Z,43.11
2023-05-14T18:03:39.133Z,44.09
2023-05-14T18:06:07.152Z,44.10
2023-05-14T18:08:36.109Z,44.01
2023-05-14T18:11:03.768Z,44.69
2023-05-14T18:13:31.797Z,45.24
2023-05-14T18:16:00.529Z,45.48
2023-05-14T18:18:28.349Z,45.85
2023-05-14T18:20:55.936Z,46.59
2023-05-14T18:23:24.037Z,46.48
2023-05-14T18:25:53.414Z,47.27
2023-05-14T18:28:21.521Z,48.01
2023-05-14T18:30:50.102Z,48.64
2023-05-14T18:33:18.049Z,48.01
2023-05-14T18:35:45.672Z,48.07
2023-05-14T18:38:13.812Z,49.32
2023-05-14T18:40:41.513Z,49.20
2023-05-14T18:43:11.622Z,49.45
2023-05-14T18:45:40.280Z,50.37
2023-05-14T18:48:08.102Z,50.22
2023-05-14T18:50:37.441Z,50.84
2023-05-14T18:53:06.672Z,50.93
2023-05-14T18:55:35.951Z,51.15
2023-05-14T18:58:03.689Z,51.77
2023-05-14T19:00:32.755Z,51.68
2023-05-14T19:03:00.786Z,52.11
2023-05-14T19:05:28.678Z,52.59
2023-05-14T19:07:57.524Z,53.35
2023-05-14T19:10:25.169Z,54.47
2023-05-14T19:12:52.876Z,58.57
2023-05-14T19:15:20.583Z,68.39
2023-05-14T19:17:50.106Z,71.75
2023-05-14T19:20:17.721Z,81.82
2023-05-14T19:22:45.406Z,91.19
2023-05-14T19:25:13.195Z,90.80
2023-05-14T19:27:41.093Z,90.09
2023-05-14T19:30:09.873Z,91.90
2023-05-14T19:32:38.063Z,89.48
2023-05-14T19:35:07.762Z,92.27
2023-05-14T19:37:35.486Z,88.09
2023-05-14T19:40:03.637Z,92.21
2023-05-14T19:42:31.778Z,96.19
2023-05-14T19:44:59.720Z,100.00
2023-05-14T19:47:28.472Z,100.00
2023-05-14T19:49:56.194Z,100.00
2023-05-14T19:52:25.425Z,100.00
2023-05-14T19:54:53.633Z,100.00
2023-05-14T19:57:21.231Z,100.00
2023-05-14T19:59:48.856Z,100.00
2023-05-14T20:02:18.254Z,100.00
2023-05-14T20:04:47.298Z,100.00
2023-05-14T20:07:15.633Z,100.00
2023-05-14T20:09:44.722Z,100.00
2023-05-14T20:12:13.217Z,100.00
2023-05-14T20:14:41.401Z,100.00
2023-05-14T20:17:09.081Z,100.00
2023-05-14T20:19:36.789Z,100.00
2023-05-14T20:22:04.504Z,100.00
2023-05-14T20:24:32.168Z,100.00
2023-05-14T20:27:01.593Z,100.00
2023-05-14T20:29:29.684Z,100.00
2023-05-14T20:31:57.528Z,100.00
2023-05-14T20:34:25.179Z,100.00
2023-05-14T20:36:52.893Z,100.00
2023-05-14T20:39:20.892Z,100.00
2023-05-14T20:41:48.498Z,100.00
2023-05-14T20:44:19.067Z,100.00
2023-05-14T20:46:48.125Z,100.00
2023-05-14T20:49:15.814Z,100.00
2023-05-14T20:51:43.436Z,100.00
2023-05-14T20:54:11.393Z,100.00
2023-05-14T20:56:39.026Z,100.00
2023-05-14T20:59:06.597Z,100.00
2023-05-14T21:01:35.655Z,100.00
2023-05-14T21:04:03.493Z,100.00
2023-05-14T21:06:31.344Z,100.00
2023-05-14T21:08:58.935Z,100.00
2023-05-14T21:11:26.553Z,100.00
2023-05-14T21:13:54.246Z,100.00
2023-05-14T21:16:21.997Z,100.00
2023-05-14T21:18:50.995Z,100.00
2023-05-14T21:21:18.590Z,100.00
2023-05-14T21:23:46.236Z,100.00
2023-05-14T21:26:13.846Z,100.00
2023-05-14T21:28:41.547Z,100.00
2023-05-14T21:31:09.214Z,100.00
2023-05-14T21:33:36.802Z,100.00
2023-05-14T21:36:07.331Z,100.00
2023-05-14T21:38:35.197Z,100.00
2023-05-14T21:41:02.980Z,100.00
2023-05-14T21:43:30.593Z,100.00
2023-05-14T21:45:58.207Z,100.00
2023-05-14T21:48:26.024Z,100.00
2023-05-14T21:50:53.694Z,100.00
2023-05-14T21:53:22.922Z,100.00
2023-05-14T21:55:50.770Z,100.00
2023-05-14T21:58:18.401Z,100.00
2023-05-14T22:00:46.107Z,100.00
2023-05-14T22:03:13.992Z,100.00
2023-05-14T22:05:41.675Z,100.00
2023-05-14T22:08:09.269Z,100.00
2023-05-14T22:10:38.935Z,100.00
2023-05-14T22:13:06.685Z,100.00
2023-05-14T22:15:34.307Z,100.00
2023-05-14T22:18:03.084Z,100.00
2023-05-14T22:20:30.756Z,100.00
2023-05-14T22:22:58.356Z,100.00
2023-05-14T22:25:26.311Z,100.00
2023-05-14T22:27:55.698Z,100.00
2023-05-14T22:30:23.430Z,100.00
2023-05-14T22:32:51.062Z,100.00
2023-05-14T22:35:18.889Z,100.00
2023-05-14T22:37:46.492Z,100.00
2023-05-14T22:40:14.564Z,100.00
2023-05-14T22:42:42.179Z,100.00
2023-05-14T22:45:12.280Z,100.00
2023-05-14T22:47:40.089Z,100.00
2023-05-14T22:50:11.402Z,100.00
2023-05-14T22:52:39.187Z,100.00
2023-05-14T22:55:07.872Z,100.00
2023-05-14T22:57:35.747Z,100.00
2023-05-14T23:00:04.086Z,100.00
2023-05-14T23:02:34.161Z,100.00
2023-05-14T23:05:01.828Z,100.00
2023-05-14T23:07:29.469Z,100.00
2023-05-14T23:09:57.414Z,100.00
2023-05-14T23:12:26.593Z,100.00
2023-05-14T23:14:54.192Z,100.00
2023-05-14T23:17:21.975Z,100.00
2023-05-14T23:19:51.267Z,100.00
2023-05-14T23:22:19.096Z,100.00
2023-05-14T23:24:47.237Z,100.00
2023-05-14T23:27:14.926Z,100.00
2023-05-14T23:29:42.499Z,100.00
2023-05-14T23:32:10.268Z,100.00
2023-05-14T23:34:37.987Z,100.00
2023-05-14T23:37:07.553Z,100.00
2023-05-14T23:39:35.170Z,100.00
2023-05-14T23:42:02.737Z,100.00
2023-05-14T23:44:30.302Z,100.00
2023-05-14T23:46:57.898Z,100.00
2023-05-14T23:49:25.563Z,100.00
2023-05-14T23:51:53.141Z,100.00
2023-05-14T23:54:22.251Z,100.00
2023-05-14T23:56:50.335Z,100.00
2023-05-14T23:59:17.933Z,100.00
